sensor_id;sensor_type;location;lat;lon;timestamp;P1;durP1;ratioP1;P2;durP2;ratioP2
67867;SDS011;54672;46.096;14.470;2022-09-24T00:00:35;12.57;;;6.07;;
67867;SDS011;54672;46.096;14.470;2022-09-24T00:03:00;13.18;;;6.90;;
67867;SDS011;54672;46.096;14.470;2022-09-24T00:05:25;12.68;;;6.85;;
67867;SDS011;54672;46.096;14.470;2022-09-24T00:07:51;11.95;;;7.47;;
67867;SDS011;54672;46.096;14.470;2022-09-24T00:10:16;15.32;;;7.05;;
67867;SDS011;54672;46.096;14.470;2022-09-24T00:12:42;13.90;;;6.72;;
67867;SDS011;54672;46.096;14.470;2022-09-24T00:15:07;14.25;;;6.72;;
67867;SDS011;54672;46.096;14.470;2022-09-24T00:17:33;15.13;;;6.80;;
67867;SDS011;54672;46.096;14.470;2022-09-24T00:19:58;11.00;;;6.25;;
67867;SDS011;54672;46.096;14.470;2022-09-24T00:22:23;12.75;;;6.78;;
67867;SDS011;54672;46.096;14.470;2022-09-24T00:24:49;10.98;;;6.55;;
67867;SDS011;54672;46.096;14.470;2022-09-24T00:27:33;12.40;;;6.78;;
67867;SDS011;54672;46.096;14.470;2022-09-24T00:29:58;11.48;;;6.72;;
67867;SDS011;54672;46.096;14.470;2022-09-24T00:32:24;12.15;;;6.00;;
67867;SDS011;54672;46.096;14.470;2022-09-24T00:34:49;14.35;;;5.95;;
67867;SDS011;54672;46.096;14.470;2022-09-24T00:37:17;9.20;;;5.68;;
67867;SDS011;54672;46.096;14.470;2022-09-24T00:39:45;10.65;;;6.30;;
67867;SDS011;54672;46.096;14.470;2022-09-24T00:42:11;10.98;;;6.47;;
67867;SDS011;54672;46.096;14.470;2022-09-24T00:47:28;9.77;;;5.47;;
67867;SDS011;54672;46.096;14.470;2022-09-24T00:50:00;12.82;;;6.03;;
67867;SDS011;54672;46.096;14.470;2022-09-24T00:52:30;9.25;;;5.47;;
67867;SDS011;54672;46.096;14.470;2022-09-24T00:54:57;11.73;;;6.10;;
67867;SDS011;54672;46.096;14.470;2022-09-24T00:57:22;9.25;;;5.45;;
67867;SDS011;54672;46.096;14.470;2022-09-24T00:59:48;12.65;;;6.45;;
67867;SDS011;54672;46.096;14.470;2022-09-24T01:02:14;10.88;;;5.63;;
67867;SDS011;54672;46.096;14.470;2022-09-24T01:04:40;11.60;;;6.20;;
67867;SDS011;54672;46.096;14.470;2022-09-24T01:07:05;11.85;;;5.97;;
67867;SDS011;54672;46.096;14.470;2022-09-24T01:09:30;11.45;;;6.28;;
67867;SDS011;54672;46.096;14.470;2022-09-24T01:14:38;10.88;;;6.43;;
67867;SDS011;54672;46.096;14.470;2022-09-24T01:26:36;9.73;;;5.75;;
67867;SDS011;54672;46.096;14.470;2022-09-24T01:31:43;8.32;;;4.90;;
67867;SDS011;54672;46.096;14.470;2022-09-24T01:34:13;10.63;;;5.47;;
67867;SDS011;54672;46.096;14.470;2022-09-24T01:36:43;11.80;;;6.32;;
67867;SDS011;54672;46.096;14.470;2022-09-24T01:39:10;12.02;;;6.43;;
67867;SDS011;54672;46.096;14.470;2022-09-24T01:41:38;9.70;;;5.82;;
67867;SDS011;54672;46.096;14.470;2022-09-24T01:44:07;10.85;;;6.47;;
67867;SDS011;54672;46.096;14.470;2022-09-24T01:46:36;14.57;;;6.22;;
67867;SDS011;54672;46.096;14.470;2022-09-24T01:49:03;14.00;;;7.00;;
67867;SDS011;54672;46.096;14.470;2022-09-24T01:54:32;10.73;;;6.32;;
67867;SDS011;54672;46.096;14.470;2022-09-24T01:57:06;11.75;;;6.35;;
67867;SDS011;54672;46.096;14.470;2022-09-24T01:59:38;10.10;;;5.72;;
67867;SDS011;54672;46.096;14.470;2022-09-24T02:02:11;13.00;;;6.88;;
67867;SDS011;54672;46.096;14.470;2022-09-24T02:04:40;14.63;;;6.85;;
67867;SDS011;54672;46.096;14.470;2022-09-24T02:07:10;12.25;;;6.03;;
67867;SDS011;54672;46.096;14.470;2022-09-24T02:09:42;10.75;;;6.30;;
67867;SDS011;54672;46.096;14.470;2022-09-24T02:12:21;11.65;;;6.30;;
67867;SDS011;54672;46.096;14.470;2022-09-24T02:14:55;12.23;;;6.38;;
67867;SDS011;54672;46.096;14.470;2022-09-24T02:17:24;11.32;;;6.15;;
67867;SDS011;54672;46.096;14.470;2022-09-24T02:19:53;12.18;;;6.68;;
67867;SDS011;54672;46.096;14.470;2022-09-24T02:22:20;12.38;;;6.97;;
67867;SDS011;54672;46.096;14.470;2022-09-24T02:24:52;12.05;;;6.28;;
67867;SDS011;54672;46.096;14.470;2022-09-24T02:27:22;13.43;;;6.22;;
67867;SDS011;54672;46.096;14.470;2022-09-24T02:29:52;12.43;;;6.70;;
67867;SDS011;54672;46.096;14.470;2022-09-24T02:32:19;13.07;;;6.60;;
67867;SDS011;54672;46.096;14.470;2022-09-24T02:34:49;11.20;;;6.32;;
67867;SDS011;54672;46.096;14.470;2022-09-24T02:37:17;12.50;;;6.78;;
67867;SDS011;54672;46.096;14.470;2022-09-24T02:39:47;13.43;;;6.50;;
67867;SDS011;54672;46.096;14.470;2022-09-24T02:42:12;12.35;;;6.45;;
67867;SDS011;54672;46.096;14.470;2022-09-24T02:44:39;12.48;;;6.60;;
67867;SDS011;54672;46.096;14.470;2022-09-24T02:47:05;10.43;;;6.00;;
67867;SDS011;54672;46.096;14.470;2022-09-24T02:49:31;11.90;;;7.05;;
67867;SDS011;54672;46.096;14.470;2022-09-24T02:51:56;18.50;;;7.30;;
67867;SDS011;54672;46.096;14.470;2022-09-24T02:54:22;14.00;;;7.13;;
67867;SDS011;54672;46.096;14.470;2022-09-24T02:56:49;12.05;;;6.50;;
67867;SDS011;54672;46.096;14.470;2022-09-24T02:59:15;9.77;;;6.20;;
67867;SDS011;54672;46.096;14.470;2022-09-24T03:01:40;13.75;;;7.65;;
67867;SDS011;54672;46.096;14.470;2022-09-24T03:04:06;13.02;;;6.45;;
67867;SDS011;54672;46.096;14.470;2022-09-24T03:06:31;12.32;;;7.32;;
67867;SDS011;54672;46.096;14.470;2022-09-24T03:08:57;12.80;;;7.18;;
67867;SDS011;54672;46.096;14.470;2022-09-24T03:11:22;13.50;;;6.88;;
67867;SDS011;54672;46.096;14.470;2022-09-24T03:13:48;17.50;;;7.22;;
67867;SDS011;54672;46.096;14.470;2022-09-24T03:16:15;11.18;;;5.95;;
67867;SDS011;54672;46.096;14.470;2022-09-24T03:18:41;12.60;;;7.05;;
67867;SDS011;54672;46.096;14.470;2022-09-24T03:21:08;14.93;;;7.88;;
67867;SDS011;54672;46.096;14.470;2022-09-24T03:23:35;11.55;;;7.00;;
67867;SDS011;54672;46.096;14.470;2022-09-24T03:26:01;11.77;;;6.55;;
67867;SDS011;54672;46.096;14.470;2022-09-24T03:28:28;14.60;;;7.55;;
67867;SDS011;54672;46.096;14.470;2022-09-24T03:30:54;16.38;;;7.45;;
67867;SDS011;54672;46.096;14.470;2022-09-24T03:35:55;12.13;;;6.88;;
67867;SDS011;54672;46.096;14.470;2022-09-24T03:38:21;13.88;;;7.07;;
67867;SDS011;54672;46.096;14.470;2022-09-24T03:40:47;11.07;;;6.65;;
67867;SDS011;54672;46.096;14.470;2022-09-24T03:43:12;11.32;;;6.57;;
67867;SDS011;54672;46.096;14.470;2022-09-24T03:45:38;11.85;;;6.65;;
67867;SDS011;54672;46.096;14.470;2022-09-24T03:48:03;11.95;;;6.78;;
67867;SDS011;54672;46.096;14.470;2022-09-24T03:50:30;11.68;;;6.78;;
67867;SDS011;54672;46.096;14.470;2022-09-24T03:52:56;11.77;;;6.10;;
67867;SDS011;54672;46.096;14.470;2022-09-24T03:55:21;12.70;;;7.07;;
67867;SDS011;54672;46.096;14.470;2022-09-24T03:57:47;15.27;;;7.28;;
67867;SDS011;54672;46.096;14.470;2022-09-24T04:00:12;12.93;;;7.22;;
67867;SDS011;54672;46.096;14.470;2022-09-24T04:02:38;11.40;;;6.55;;
67867;SDS011;54672;46.096;14.470;2022-09-24T04:05:04;14.15;;;6.43;;
67867;SDS011;54672;46.096;14.470;2022-09-24T04:07:31;15.52;;;7.60;;
67867;SDS011;54672;46.096;14.470;2022-09-24T04:09:56;16.00;;;7.18;;
67867;SDS011;54672;46.096;14.470;2022-09-24T04:12:22;13.68;;;7.05;;
67867;SDS011;54672;46.096;14.470;2022-09-24T04:14:47;15.23;;;7.13;;
67867;SDS011;54672;46.096;14.470;2022-09-24T04:17:13;18.05;;;7.80;;
67867;SDS011;54672;46.096;14.470;2022-09-24T04:19:39;17.10;;;7.90;;
67867;SDS011;54672;46.096;14.470;2022-09-24T04:22:04;13.32;;;6.50;;
67867;SDS011;54672;46.096;14.470;2022-09-24T04:24:30;12.88;;;6.93;;
67867;SDS011;54672;46.096;14.470;2022-09-24T04:26:55;14.57;;;7.40;;
67867;SDS011;54672;46.096;14.470;2022-09-24T04:29:20;14.57;;;7.30;;
67867;SDS011;54672;46.096;14.470;2022-09-24T04:31:46;15.38;;;7.30;;
67867;SDS011;54672;46.096;14.470;2022-09-24T04:34:11;16.85;;;8.93;;
67867;SDS011;54672;46.096;14.470;2022-09-24T04:36:36;14.50;;;8.25;;
67867;SDS011;54672;46.096;14.470;2022-09-24T04:39:02;14.32;;;7.72;;
67867;SDS011;54672;46.096;14.470;2022-09-24T04:41:27;9.23;;;2.85;;
67867;SDS011;54672;46.096;14.470;2022-09-24T04:43:55;28.15;;;25.58;;
67867;SDS011;54672;46.096;14.470;2022-09-24T04:46:21;13.02;;;7.22;;
67867;SDS011;54672;46.096;14.470;2022-09-24T04:48:46;16.67;;;7.82;;
67867;SDS011;54672;46.096;14.470;2022-09-24T04:51:12;12.00;;;7.15;;
67867;SDS011;54672;46.096;14.470;2022-09-24T04:53:37;13.13;;;7.80;;
67867;SDS011;54672;46.096;14.470;2022-09-24T04:56:03;13.13;;;7.25;;
67867;SDS011;54672;46.096;14.470;2022-09-24T04:58:29;11.98;;;6.25;;
67867;SDS011;54672;46.096;14.470;2022-09-24T05:00:55;14.00;;;7.00;;
67867;SDS011;54672;46.096;14.470;2022-09-24T05:03:20;2.58;;;1.38;;
67867;SDS011;54672;46.096;14.470;2022-09-24T05:05:46;4.22;;;2.92;;
67867;SDS011;54672;46.096;14.470;2022-09-24T05:08:12;2.13;;;1.70;;
67867;SDS011;54672;46.096;14.470;2022-09-24T05:10:38;6.18;;;3.30;;
67867;SDS011;54672;46.096;14.470;2022-09-24T05:13:03;2.95;;;2.53;;
67867;SDS011;54672;46.096;14.470;2022-09-24T05:15:29;4.07;;;2.45;;
67867;SDS011;54672;46.096;14.470;2022-09-24T05:17:55;7.88;;;4.43;;
67867;SDS011;54672;46.096;14.470;2022-09-24T05:20:20;14.48;;;2.20;;
67867;SDS011;54672;46.096;14.470;2022-09-24T05:22:46;4.43;;;2.45;;
67867;SDS011;54672;46.096;14.470;2022-09-24T05:25:14;1.45;;;1.17;;
67867;SDS011;54672;46.096;14.470;2022-09-24T05:27:44;2.50;;;2.22;;
67867;SDS011;54672;46.096;14.470;2022-09-24T05:30:13;2.03;;;1.70;;
67867;SDS011;54672;46.096;14.470;2022-09-24T05:32:40;3.67;;;2.40;;
67867;SDS011;54672;46.096;14.470;2022-09-24T05:35:06;3.40;;;2.22;;
67867;SDS011;54672;46.096;14.470;2022-09-24T05:37:32;5.78;;;2.80;;
67867;SDS011;54672;46.096;14.470;2022-09-24T05:39:58;6.53;;;3.50;;
67867;SDS011;54672;46.096;14.470;2022-09-24T05:42:44;5.28;;;3.50;;
67867;SDS011;54672;46.096;14.470;2022-09-24T05:45:10;15.50;;;8.07;;
67867;SDS011;54672;46.096;14.470;2022-09-24T05:47:36;13.30;;;6.20;;
67867;SDS011;54672;46.096;14.470;2022-09-24T05:50:01;8.77;;;5.15;;
67867;SDS011;54672;46.096;14.470;2022-09-24T05:52:27;7.97;;;4.75;;
67867;SDS011;54672;46.096;14.470;2022-09-24T05:54:52;8.95;;;4.30;;
67867;SDS011;54672;46.096;14.470;2022-09-24T05:57:17;6.22;;;3.85;;
67867;SDS011;54672;46.096;14.470;2022-09-24T05:59:43;7.82;;;4.45;;
67867;SDS011;54672;46.096;14.470;2022-09-24T06:02:09;7.60;;;3.53;;
67867;SDS011;54672;46.096;14.470;2022-09-24T06:04:34;10.70;;;4.32;;
67867;SDS011;54672;46.096;14.470;2022-09-24T06:07:00;6.47;;;3.75;;
67867;SDS011;54672;46.096;14.470;2022-09-24T06:09:27;8.80;;;4.45;;
67867;SDS011;54672;46.096;14.470;2022-09-24T06:11:52;8.65;;;4.03;;
67867;SDS011;54672;46.096;14.470;2022-09-24T06:14:18;7.20;;;3.80;;
67867;SDS011;54672;46.096;14.470;2022-09-24T06:16:44;7.78;;;4.43;;
67867;SDS011;54672;46.096;14.470;2022-09-24T06:19:09;8.50;;;4.10;;
67867;SDS011;54672;46.096;14.470;2022-09-24T06:21:35;9.00;;;3.83;;
67867;SDS011;54672;46.096;14.470;2022-09-24T06:24:00;7.35;;;3.67;;
67867;SDS011;54672;46.096;14.470;2022-09-24T06:26:27;7.75;;;3.65;;
67867;SDS011;54672;46.096;14.470;2022-09-24T06:28:53;9.63;;;3.95;;
67867;SDS011;54672;46.096;14.470;2022-09-24T06:31:18;10.95;;;3.47;;
67867;SDS011;54672;46.096;14.470;2022-09-24T06:33:44;7.20;;;3.55;;
67867;SDS011;54672;46.096;14.470;2022-09-24T06:36:09;6.53;;;3.70;;
67867;SDS011;54672;46.096;14.470;2022-09-24T06:38:35;8.20;;;4.20;;
67867;SDS011;54672;46.096;14.470;2022-09-24T06:41:02;6.90;;;3.90;;
67867;SDS011;54672;46.096;14.470;2022-09-24T06:43:29;7.97;;;4.03;;
67867;SDS011;54672;46.096;14.470;2022-09-24T06:45:55;5.53;;;2.13;;
67867;SDS011;54672;46.096;14.470;2022-09-24T06:48:21;1.40;;;1.30;;
67867;SDS011;54672;46.096;14.470;2022-09-24T06:50:47;3.13;;;1.55;;
67867;SDS011;54672;46.096;14.470;2022-09-24T06:53:12;2.97;;;1.70;;
67867;SDS011;54672;46.096;14.470;2022-09-24T06:55:38;6.95;;;3.50;;
67867;SDS011;54672;46.096;14.470;2022-09-24T06:58:10;3.55;;;2.17;;
67867;SDS011;54672;46.096;14.470;2022-09-24T07:00:38;3.92;;;2.40;;
67867;SDS011;54672;46.096;14.470;2022-09-24T07:03:05;3.05;;;2.22;;
67867;SDS011;54672;46.096;14.470;2022-09-24T07:05:31;8.55;;;3.97;;
67867;SDS011;54672;46.096;14.470;2022-09-24T07:07:57;6.28;;;2.92;;
67867;SDS011;54672;46.096;14.470;2022-09-24T07:10:23;4.63;;;3.10;;
67867;SDS011;54672;46.096;14.470;2022-09-24T07:12:49;5.28;;;3.35;;
67867;SDS011;54672;46.096;14.470;2022-09-24T07:15:14;4.35;;;2.45;;
67867;SDS011;54672;46.096;14.470;2022-09-24T07:17:40;8.02;;;3.45;;
67867;SDS011;54672;46.096;14.470;2022-09-24T07:20:05;5.72;;;3.25;;
67867;SDS011;54672;46.096;14.470;2022-09-24T07:22:31;4.85;;;2.95;;
67867;SDS011;54672;46.096;14.470;2022-09-24T07:25:01;5.68;;;3.25;;
67867;SDS011;54672;46.096;14.470;2022-09-24T07:27:27;5.20;;;3.00;;
67867;SDS011;54672;46.096;14.470;2022-09-24T07:29:52;5.60;;;3.13;;
67867;SDS011;54672;46.096;14.470;2022-09-24T07:32:18;4.72;;;2.85;;
67867;SDS011;54672;46.096;14.470;2022-09-24T07:34:43;7.38;;;3.55;;
67867;SDS011;54672;46.096;14.470;2022-09-24T07:37:09;4.03;;;2.47;;
67867;SDS011;54672;46.096;14.470;2022-09-24T07:39:34;4.22;;;3.00;;
67867;SDS011;54672;46.096;14.470;2022-09-24T07:42:00;3.65;;;2.28;;
67867;SDS011;54672;46.096;14.470;2022-09-24T07:44:27;6.97;;;3.03;;
67867;SDS011;54672;46.096;14.470;2022-09-24T07:46:53;6.60;;;3.10;;
67867;SDS011;54672;46.096;14.470;2022-09-24T07:49:19;4.53;;;2.85;;
67867;SDS011;54672;46.096;14.470;2022-09-24T07:51:44;5.63;;;3.33;;
67867;SDS011;54672;46.096;14.470;2022-09-24T07:54:10;8.85;;;3.83;;
67867;SDS011;54672;46.096;14.470;2022-09-24T07:56:35;6.65;;;3.38;;
67867;SDS011;54672;46.096;14.470;2022-09-24T07:59:01;5.32;;;3.05;;
67867;SDS011;54672;46.096;14.470;2022-09-24T08:01:30;7.22;;;3.80;;
67867;SDS011;54672;46.096;14.470;2022-09-24T08:03:56;6.43;;;3.92;;
67867;SDS011;54672;46.096;14.470;2022-09-24T08:06:23;12.25;;;3.83;;
67867;SDS011;54672;46.096;14.470;2022-09-24T08:08:49;6.25;;;3.50;;
67867;SDS011;54672;46.096;14.470;2022-09-24T08:11:14;5.63;;;3.58;;
67867;SDS011;54672;46.096;14.470;2022-09-24T08:13:41;14.40;;;3.95;;
67867;SDS011;54672;46.096;14.470;2022-09-24T08:16:07;5.70;;;3.38;;
67867;SDS011;54672;46.096;14.470;2022-09-24T08:18:32;7.18;;;3.58;;
67867;SDS011;54672;46.096;14.470;2022-09-24T08:20:58;9.18;;;4.40;;
67867;SDS011;54672;46.096;14.470;2022-09-24T08:23:28;5.88;;;3.47;;
67867;SDS011;54672;46.096;14.470;2022-09-24T08:25:56;7.20;;;3.63;;
67867;SDS011;54672;46.096;14.470;2022-09-24T08:28:21;6.20;;;3.80;;
67867;SDS011;54672;46.096;14.470;2022-09-24T08:30:47;7.75;;;4.07;;
67867;SDS011;54672;46.096;14.470;2022-09-24T08:33:12;6.38;;;3.92;;
67867;SDS011;54672;46.096;14.470;2022-09-24T08:35:38;6.40;;;3.75;;
67867;SDS011;54672;46.096;14.470;2022-09-24T08:38:06;9.85;;;4.32;;
67867;SDS011;54672;46.096;14.470;2022-09-24T08:40:43;33.15;;;12.95;;
67867;SDS011;54672;46.096;14.470;2022-09-24T08:45:59;8.68;;;4.88;;
67867;SDS011;54672;46.096;14.470;2022-09-24T08:48:47;13.98;;;4.47;;
67867;SDS011;54672;46.096;14.470;2022-09-24T08:51:18;8.05;;;4.07;;
67867;SDS011;54672;46.096;14.470;2022-09-24T08:53:50;11.73;;;4.13;;
67867;SDS011;54672;46.096;14.470;2022-09-24T08:59:00;22.10;;;19.98;;
67867;SDS011;54672;46.096;14.470;2022-09-24T09:01:38;11.02;;;8.80;;
67867;SDS011;54672;46.096;14.470;2022-09-24T09:07:44;1999.90;;;999.90;;
67867;SDS011;54672;46.096;14.470;2022-09-24T09:10:26;1999.90;;;999.90;;
67867;SDS011;54672;46.096;14.470;2022-09-24T09:12:59;1999.90;;;999.90;;
67867;SDS011;54672;46.096;14.470;2022-09-24T09:15:30;1999.90;;;999.90;;
67867;SDS011;54672;46.096;14.470;2022-09-24T09:20:51;1999.90;;;999.90;;
67867;SDS011;54672;46.096;14.470;2022-09-24T09:23:19;24.45;;;22.95;;
67867;SDS011;54672;46.096;14.470;2022-09-24T09:25:53;17.65;;;16.35;;
67867;SDS011;54672;46.096;14.470;2022-09-24T09:28:21;17.23;;;15.93;;
67867;SDS011;54672;46.096;14.470;2022-09-24T09:42:01;1502.53;;;752.38;;
67867;SDS011;54672;46.096;14.470;2022-09-24T09:45:02;8.13;;;4.00;;
67867;SDS011;54672;46.096;14.470;2022-09-24T09:47:42;9.30;;;4.43;;
67867;SDS011;54672;46.096;14.470;2022-09-24T09:52:42;11.30;;;5.35;;
67867;SDS011;54672;46.096;14.470;2022-09-24T09:55:07;10.65;;;5.20;;
67867;SDS011;54672;46.096;14.470;2022-09-24T09:57:45;11.75;;;4.55;;
67867;SDS011;54672;46.096;14.470;2022-09-24T10:00:21;8.07;;;4.82;;
67867;SDS011;54672;46.096;14.470;2022-09-24T10:02:49;8.18;;;4.25;;
67867;SDS011;54672;46.096;14.470;2022-09-24T10:05:18;7.40;;;3.95;;
67867;SDS011;54672;46.096;14.470;2022-09-24T10:07:46;8.43;;;4.53;;
67867;SDS011;54672;46.096;14.470;2022-09-24T10:10:21;9.82;;;3.60;;
67867;SDS011;54672;46.096;14.470;2022-09-24T10:12:52;7.63;;;4.25;;
67867;SDS011;54672;46.096;14.470;2022-09-24T10:15:20;7.28;;;4.28;;
67867;SDS011;54672;46.096;14.470;2022-09-24T10:17:49;6.60;;;3.58;;
67867;SDS011;54672;46.096;14.470;2022-09-24T10:20:18;6.03;;;3.53;;
67867;SDS011;54672;46.096;14.470;2022-09-24T10:22:52;34.90;;;5.35;;
67867;SDS011;54672;46.096;14.470;2022-09-24T10:25:22;6.50;;;2.47;;
67867;SDS011;54672;46.096;14.470;2022-09-24T10:27:53;4.68;;;2.47;;
67867;SDS011;54672;46.096;14.470;2022-09-24T10:30:48;3.20;;;1.77;;
67867;SDS011;54672;46.096;14.470;2022-09-24T10:33:19;3.42;;;2.05;;
67867;SDS011;54672;46.096;14.470;2022-09-24T10:35:45;3.58;;;2.13;;
67867;SDS011;54672;46.096;14.470;2022-09-24T10:38:19;3.67;;;2.00;;
67867;SDS011;54672;46.096;14.470;2022-09-24T10:40:45;3.60;;;2.25;;
67867;SDS011;54672;46.096;14.470;2022-09-24T10:43:18;6.07;;;2.63;;
67867;SDS011;54672;46.096;14.470;2022-09-24T10:48:26;5.75;;;3.30;;
67867;SDS011;54672;46.096;14.470;2022-09-24T10:50:56;13.25;;;3.28;;
67867;SDS011;54672;46.096;14.470;2022-09-24T10:53:37;5.63;;;3.45;;
67867;SDS011;54672;46.096;14.470;2022-09-24T10:56:46;5.75;;;2.72;;
67867;SDS011;54672;46.096;14.470;2022-09-24T11:04:45;4.55;;;2.30;;
67867;SDS011;54672;46.096;14.470;2022-09-24T11:07:22;6.05;;;3.08;;
67867;SDS011;54672;46.096;14.470;2022-09-24T11:12:46;4.20;;;2.40;;
67867;SDS011;54672;46.096;14.470;2022-09-24T11:18:00;10.65;;;2.60;;
67867;SDS011;54672;46.096;14.470;2022-09-24T11:23:21;3.20;;;2.13;;
67867;SDS011;54672;46.096;14.470;2022-09-24T11:25:58;3.47;;;1.90;;
67867;SDS011;54672;46.096;14.470;2022-09-24T11:34:33;5.07;;;1.75;;
67867;SDS011;54672;46.096;14.470;2022-09-24T11:40:11;5.35;;;2.58;;
67867;SDS011;54672;46.096;14.470;2022-09-24T11:58:19;5.00;;;2.70;;
67867;SDS011;54672;46.096;14.470;2022-09-24T12:01:05;4.40;;;2.25;;
67867;SDS011;54672;46.096;14.470;2022-09-24T12:03:39;3.92;;;2.38;;
67867;SDS011;54672;46.096;14.470;2022-09-24T12:06:30;3.35;;;2.22;;
67867;SDS011;54672;46.096;14.470;2022-09-24T12:11:33;5.72;;;3.15;;
67867;SDS011;54672;46.096;14.470;2022-09-24T12:14:13;4.57;;;2.67;;
67867;SDS011;54672;46.096;14.470;2022-09-24T12:16:44;4.20;;;2.30;;
67867;SDS011;54672;46.096;14.470;2022-09-24T12:19:18;6.25;;;2.53;;
67867;SDS011;54672;46.096;14.470;2022-09-24T12:21:46;8.18;;;4.40;;
67867;SDS011;54672;46.096;14.470;2022-09-24T12:26:57;6.57;;;3.63;;
67867;SDS011;54672;46.096;14.470;2022-09-24T12:40:53;5.50;;;3.60;;
67867;SDS011;54672;46.096;14.470;2022-09-24T12:43:37;5.53;;;3.92;;
67867;SDS011;54672;46.096;14.470;2022-09-24T12:46:04;7.75;;;4.32;;
67867;SDS011;54672;46.096;14.470;2022-09-24T12:48:37;19.55;;;7.20;;
67867;SDS011;54672;46.096;14.470;2022-09-24T12:51:04;16.33;;;7.13;;
67867;SDS011;54672;46.096;14.470;2022-09-24T12:53:36;6.95;;;4.10;;
67867;SDS011;54672;46.096;14.470;2022-09-24T12:56:05;13.30;;;4.60;;
67867;SDS011;54672;46.096;14.470;2022-09-24T13:03:38;5.30;;;3.25;;
67867;SDS011;54672;46.096;14.470;2022-09-24T13:06:19;5.15;;;3.15;;
67867;SDS011;54672;46.096;14.470;2022-09-24T13:08:56;5.63;;;3.60;;
67867;SDS011;54672;46.096;14.470;2022-09-24T13:11:31;6.03;;;3.42;;
67867;SDS011;54672;46.096;14.470;2022-09-24T13:16:39;8.20;;;4.30;;
67867;SDS011;54672;46.096;14.470;2022-09-24T13:22:04;4.43;;;2.92;;
67867;SDS011;54672;46.096;14.470;2022-09-24T13:24:45;4.38;;;2.92;;
67867;SDS011;54672;46.096;14.470;2022-09-24T13:27:19;6.18;;;2.70;;
67867;SDS011;54672;46.096;14.470;2022-09-24T13:32:43;4.20;;;2.25;;
67867;SDS011;54672;46.096;14.470;2022-09-24T13:35:16;6.38;;;2.80;;
67867;SDS011;54672;46.096;14.470;2022-09-24T13:37:51;8.98;;;3.15;;
67867;SDS011;54672;46.096;14.470;2022-09-24T13:40:23;3.97;;;2.70;;
67867;SDS011;54672;46.096;14.470;2022-09-24T13:42:58;6.70;;;3.70;;
67867;SDS011;54672;46.096;14.470;2022-09-24T13:45:28;7.13;;;3.40;;
67867;SDS011;54672;46.096;14.470;2022-09-24T13:47:56;5.60;;;2.97;;
67867;SDS011;54672;46.096;14.470;2022-09-24T13:53:16;6.40;;;2.47;;
67867;SDS011;54672;46.096;14.470;2022-09-24T13:55:47;12.00;;;2.38;;
67867;SDS011;54672;46.096;14.470;2022-09-24T14:00:55;7.00;;;3.83;;
67867;SDS011;54672;46.096;14.470;2022-09-24T14:03:27;6.35;;;3.70;;
67867;SDS011;54672;46.096;14.470;2022-09-24T14:05:54;6.93;;;3.97;;
67867;SDS011;54672;46.096;14.470;2022-09-24T14:08:21;5.40;;;3.55;;
67867;SDS011;54672;46.096;14.470;2022-09-24T14:10:48;6.20;;;3.58;;
67867;SDS011;54672;46.096;14.470;2022-09-24T14:18:16;6.82;;;3.55;;
67867;SDS011;54672;46.096;14.470;2022-09-24T14:20:41;4.97;;;3.35;;
67867;SDS011;54672;46.096;14.470;2022-09-24T14:23:08;5.68;;;3.50;;
67867;SDS011;54672;46.096;14.470;2022-09-24T14:25:43;5.80;;;3.25;;
67867;SDS011;54672;46.096;14.470;2022-09-24T14:28:10;5.45;;;2.85;;
67867;SDS011;54672;46.096;14.470;2022-09-24T14:30:37;5.20;;;3.25;;
67867;SDS011;54672;46.096;14.470;2022-09-24T14:33:17;5.38;;;3.05;;
67867;SDS011;54672;46.096;14.470;2022-09-24T14:35:45;5.15;;;3.03;;
67867;SDS011;54672;46.096;14.470;2022-09-24T14:38:14;8.80;;;3.00;;
67867;SDS011;54672;46.096;14.470;2022-09-24T14:41:04;4.43;;;2.58;;
67867;SDS011;54672;46.096;14.470;2022-09-24T14:46:14;5.15;;;2.72;;
67867;SDS011;54672;46.096;14.470;2022-09-24T14:48:45;4.20;;;2.60;;
67867;SDS011;54672;46.096;14.470;2022-09-24T14:51:26;5.63;;;2.80;;
67867;SDS011;54672;46.096;14.470;2022-09-24T14:53:57;3.90;;;2.90;;
67867;SDS011;54672;46.096;14.470;2022-09-24T14:56:31;4.35;;;2.65;;
67867;SDS011;54672;46.096;14.470;2022-09-24T14:58:58;4.32;;;2.67;;
67867;SDS011;54672;46.096;14.470;2022-09-24T15:01:28;3.97;;;2.85;;
67867;SDS011;54672;46.096;14.470;2022-09-24T15:03:56;5.30;;;2.60;;
67867;SDS011;54672;46.096;14.470;2022-09-24T15:06:43;4.40;;;3.03;;
67867;SDS011;54672;46.096;14.470;2022-09-24T15:09:46;3.60;;;2.72;;
67867;SDS011;54672;46.096;14.470;2022-09-24T15:12:06;5.63;;;2.90;;
67867;SDS011;54672;46.096;14.470;2022-09-24T15:14:32;4.22;;;3.00;;
67867;SDS011;54672;46.096;14.470;2022-09-24T15:19:55;5.38;;;2.90;;
67867;SDS011;54672;46.096;14.470;2022-09-24T15:22:22;5.57;;;3.03;;
67867;SDS011;54672;46.096;14.470;2022-09-24T15:24:50;5.13;;;3.10;;
67867;SDS011;54672;46.096;14.470;2022-09-24T15:27:26;4.13;;;2.60;;
67867;SDS011;54672;46.096;14.470;2022-09-24T15:29:56;4.00;;;2.63;;
67867;SDS011;54672;46.096;14.470;2022-09-24T15:32:29;5.05;;;3.22;;
67867;SDS011;54672;46.096;14.470;2022-09-24T15:34:56;4.97;;;3.13;;
67867;SDS011;54672;46.096;14.470;2022-09-24T15:37:25;6.45;;;3.08;;
67867;SDS011;54672;46.096;14.470;2022-09-24T15:39:55;6.25;;;3.58;;
67867;SDS011;54672;46.096;14.470;2022-09-24T15:42:23;1999.90;;;999.90;;
67867;SDS011;54672;46.096;14.470;2022-09-24T15:44:50;122.88;;;114.72;;
67867;SDS011;54672;46.096;14.470;2022-09-24T15:47:16;4.78;;;2.85;;
67867;SDS011;54672;46.096;14.470;2022-09-24T15:49:43;4.25;;;2.90;;
67867;SDS011;54672;46.096;14.470;2022-09-24T15:52:24;6.13;;;3.47;;
67867;SDS011;54672;46.096;14.470;2022-09-24T15:54:51;7.47;;;3.50;;
67867;SDS011;54672;46.096;14.470;2022-09-24T15:57:22;4.32;;;3.00;;
67867;SDS011;54672;46.096;14.470;2022-09-24T15:59:48;10.18;;;4.50;;
67867;SDS011;54672;46.096;14.470;2022-09-24T16:02:15;7.03;;;4.00;;
67867;SDS011;54672;46.096;14.470;2022-09-24T16:04:43;5.88;;;3.60;;
67867;SDS011;54672;46.096;14.470;2022-09-24T16:07:08;12.18;;;5.63;;
67867;SDS011;54672;46.096;14.470;2022-09-24T16:09:34;10.23;;;4.82;;
67867;SDS011;54672;46.096;14.470;2022-09-24T16:11:59;8.25;;;4.35;;
67867;SDS011;54672;46.096;14.470;2022-09-24T16:14:25;9.50;;;4.00;;
67867;SDS011;54672;46.096;14.470;2022-09-24T16:16:51;7.22;;;3.53;;
67867;SDS011;54672;46.096;14.470;2022-09-24T16:19:16;5.05;;;3.42;;
67867;SDS011;54672;46.096;14.470;2022-09-24T16:21:42;4.40;;;3.13;;
67867;SDS011;54672;46.096;14.470;2022-09-24T16:24:07;5.00;;;3.60;;
67867;SDS011;54672;46.096;14.470;2022-09-24T16:26:33;6.72;;;3.83;;
67867;SDS011;54672;46.096;14.470;2022-09-24T16:29:02;6.10;;;3.22;;
67867;SDS011;54672;46.096;14.470;2022-09-24T16:31:29;6.97;;;3.83;;
67867;SDS011;54672;46.096;14.470;2022-09-24T16:33:54;6.05;;;4.13;;
67867;SDS011;54672;46.096;14.470;2022-09-24T16:36:19;5.60;;;3.65;;
67867;SDS011;54672;46.096;14.470;2022-09-24T16:38:47;7.78;;;4.22;;
67867;SDS011;54672;46.096;14.470;2022-09-24T16:41:13;5.43;;;3.80;;
67867;SDS011;54672;46.096;14.470;2022-09-24T16:43:39;10.00;;;4.60;;
67867;SDS011;54672;46.096;14.470;2022-09-24T16:46:06;7.78;;;4.82;;
67867;SDS011;54672;46.096;14.470;2022-09-24T16:48:33;6.15;;;4.18;;
67867;SDS011;54672;46.096;14.470;2022-09-24T16:51:02;7.10;;;4.22;;
67867;SDS011;54672;46.096;14.470;2022-09-24T16:53:29;10.77;;;4.13;;